createdAt,value
2023-05-15T00:00:53.156Z,100.00
2023-05-15T00:03:21.322Z,100.00
2023-05-15T00:05:49.406Z,100.00
2023-05-15T00:08:17.513Z,100.00
2023-05-15T00:10:54.150Z,100.00
2023-05-15T00:13:30.547Z,100.00
2023-05-15T00:15:58.582Z,100.00
2023-05-15T00:18:27.441Z,100.00
2023-05-15T00:20:55.603Z,100.00
2023-05-15T00:23:23.573Z,100.00
2023-05-15T00:25:51.898Z,100.00
2023-05-15T00:28:19.946Z,100.00
2023-05-15T00:30:49.296Z,100.00
2023-05-15T00:33:17.286Z,100.00
2023-05-15T00:35:46.104Z,100.00
2023-05-15T00:38:14.167Z,100.00
2023-05-15T00:40:43.829Z,100.00
2023-05-15T00:43:13.356Z,100.00
2023-05-15T00:45:43.387Z,100.00
2023-05-15T00:48:13.315Z,100.00
2023-05-15T00:50:42.513Z,100.00
2023-05-15T00:53:10.807Z,100.00
2023-05-15T00:55:40.490Z,100.00
2023-05-15T00:58:09.220Z,100.00
2023-05-15T01:00:37.866Z,100.00
2023-05-15T01:03:06.543Z,100.00
2023-05-15T01:05:36.231Z,100.00
2023-05-15T01:08:13.565Z,100.00
2023-05-15T01:10:44.141Z,100.00
2023-05-15T01:13:14.639Z,100.00
2023-05-15T01:15:42.846Z,100.00
2023-05-15T01:18:10.914Z,100.00
2023-05-15T01:20:57.158Z,100.00
2023-05-15T01:23:32.303Z,100.00
2023-05-15T01:26:30.364Z,100.00
2023-05-15T01:29:05.873Z,100.00
2023-05-15T01:31:39.151Z,100.00
2023-05-15T01:34:10.564Z,100.00
2023-05-15T01:36:44.005Z,100.00
2023-05-15T01:39:12.893Z,100.00
2023-05-15T01:41:46.586Z,100.00
2023-05-15T01:44:21.014Z,100.00
2023-05-15T01:46:52.551Z,100.00
2023-05-15T01:49:25.827Z,100.00
2023-05-15T01:52:02.755Z,100.00
2023-05-15T01:54:32.049Z,100.00
2023-05-15T01:57:00.531Z,100.00
2023-05-15T01:59:30.740Z,100.00
2023-05-15T02:01:59.726Z,100.00
2023-05-15T02:04:28.232Z,100.00
2023-05-15T02:06:56.879Z,100.00
2023-05-15T02:09:25.936Z,100.00
2023-05-15T02:11:55.144Z,100.00
2023-05-15T02:14:24.790Z,100.00
2023-05-15T02:16:54.084Z,100.00
2023-05-15T02:19:22.060Z,100.00
2023-05-15T02:21:50.416Z,100.00
2023-05-15T02:24:18.407Z,100.00
2023-05-15T02:26:55.526Z,100.00
2023-05-15T02:29:32.631Z,100.00
2023-05-15T02:32:08.491Z,100.00
2023-05-15T02:34:43.593Z,100.00
2023-05-15T02:37:14.992Z,100.00
2023-05-15T02:39:46.052Z,100.00
2023-05-15T02:42:15.462Z,100.00
2023-05-15T02:44:44.434Z,100.00
2023-05-15T02:47:14.804Z,100.00
2023-05-15T02:49:43.194Z,100.00
2023-05-15T02:52:11.172Z,100.00
2023-05-15T02:54:39.262Z,100.00
2023-05-15T02:57:08.030Z,100.00
2023-05-15T02:59:36.337Z,100.00
2023-05-15T03:02:05.464Z,100.00
2023-05-15T03:04:34.863Z,100.00
2023-05-15T03:07:02.913Z,100.00
2023-05-15T03:09:30.910Z,100.00
2023-05-15T03:11:58.860Z,100.00
2023-05-15T03:14:26.880Z,100.00
2023-05-15T03:16:54.982Z,100.00
2023-05-15T03:19:22.984Z,100.00
2023-05-15T03:21:52.324Z,100.00
2023-05-15T03:24:20.981Z,100.00
2023-05-15T03:26:48.921Z,100.00
2023-05-15T03:29:16.898Z,100.00
2023-05-15T03:31:44.950Z,100.00
2023-05-15T03:34:13.028Z,100.00
2023-05-15T03:36:41.121Z,100.00
2023-05-15T03:39:10.586Z,100.00
2023-05-15T03:41:38.562Z,100.00
2023-05-15T03:44:06.979Z,100.00
2023-05-15T03:46:34.946Z,100.00
2023-05-15T03:49:02.936Z,100.00
2023-05-15T03:51:31.106Z,100.00
2023-05-15T03:53:59.057Z,100.00
2023-05-15T03:56:28.402Z,100.00
2023-05-15T03:58:56.404Z,100.00
2023-05-15T04:01:24.447Z,100.00
2023-05-15T04:03:52.433Z,100.00
2023-05-15T04:06:20.431Z,100.00
2023-05-15T04:08:48.390Z,100.00
2023-05-15T04:11:16.398Z,100.00
2023-05-15T04:13:45.734Z,100.00
2023-05-15T04:16:14.367Z,100.00
2023-05-15T04:18:42.500Z,100.00
2023-05-15T04:21:10.572Z,100.00
2023-05-15T04:23:39.808Z,100.00
2023-05-15T04:26:08.210Z,100.00
2023-05-15T04:28:36.155Z,100.00
2023-05-15T04:31:05.511Z,100.00
2023-05-15T04:33:33.480Z,100.00
2023-05-15T04:36:01.941Z,100.00
2023-05-15T04:38:30.181Z,100.00
2023-05-15T04:40:58.188Z,100.00
2023-05-15T04:43:26.124Z,100.00
2023-05-15T04:45:54.198Z,100.00
2023-05-15T04:48:23.589Z,100.00
2023-05-15T04:50:51.876Z,100.00
2023-05-15T04:53:19.835Z,100.00
2023-05-15T04:55:51.259Z,100.00
2023-05-15T04:58:19.355Z,100.00
2023-05-15T05:00:47.335Z,100.00
2023-05-15T05:03:15.389Z,100.00
2023-05-15T05:05:44.860Z,100.00
2023-05-15T05:08:12.876Z,100.00
2023-05-15T05:10:40.925Z,100.00
2023-05-15T05:13:08.945Z,100.00
2023-05-15T05:15:37.133Z,100.00
2023-05-15T05:18:05.989Z,100.00
2023-05-15T05:20:34.109Z,100.00
2023-05-15T05:23:03.395Z,100.00
2023-05-15T05:25:31.437Z,100.00
2023-05-15T05:27:59.397Z,100.00
2023-05-15T05:30:27.392Z,100.00
2023-05-15T05:32:55.536Z,100.00
2023-05-15T05:35:23.783Z,100.00
2023-05-15T05:37:51.881Z,100.00
2023-05-15T05:40:21.241Z,100.00
2023-05-15T05:42:49.230Z,100.00
2023-05-15T05:45:17.411Z,100.00
2023-05-15T05:47:45.547Z,100.00
2023-05-15T05:50:13.525Z,100.00
2023-05-15T05:52:41.537Z,100.00
2023-05-15T05:55:10.357Z,100.00
2023-05-15T05:57:39.768Z,100.00
2023-05-15T06:00:09.726Z,100.00
2023-05-15T06:02:38.500Z,100.00
2023-05-15T06:05:08.585Z,100.00
2023-05-15T06:07:36.895Z,100.00
2023-05-15T06:10:05.321Z,100.00
2023-05-15T06:12:33.290Z,100.00
2023-05-15T06:15:02.709Z,100.00
2023-05-15T06:17:30.735Z,100.00
2023-05-15T06:19:58.759Z,100.00
2023-05-15T06:22:26.801Z,100.00
2023-05-15T06:24:54.808Z,100.00
2023-05-15T06:27:23.489Z,100.00
2023-05-15T06:29:51.501Z,100.00
2023-05-15T06:32:20.926Z,100.00
2023-05-15T06:34:48.985Z,100.00
2023-05-15T06:37:17.100Z,100.00
2023-05-15T06:39:45.175Z,100.00
2023-05-15T06:42:15.093Z,100.00
2023-05-15T06:44:43.153Z,100.00
2023-05-15T06:47:11.112Z,100.00
2023-05-15T06:49:40.649Z,100.00
2023-05-15T06:52:08.718Z,100.00
2023-05-15T06:54:36.814Z,100.00
2023-05-15T06:57:05.118Z,100.00
2023-05-15T06:59:35.532Z,100.00
2023-05-15T07:02:03.687Z,100.00
2023-05-15T07:04:32.150Z,100.00
2023-05-15T07:07:01.532Z,100.00
2023-05-15T07:09:29.557Z,100.00
2023-05-15T07:11:57.660Z,100.00
2023-05-15T07:14:25.651Z,100.00
2023-05-15T07:16:53.641Z,100.00
2023-05-15T07:19:21.934Z,100.00
2023-05-15T07:21:50.005Z,100.00
2023-05-15T07:24:19.435Z,100.00
2023-05-15T07:26:58.163Z,100.00
2023-05-15T07:29:27.109Z,100.00
2023-05-15T07:31:55.339Z,100.00
2023-05-15T07:34:23.721Z,100.00
2023-05-15T07:36:51.788Z,100.00
2023-05-15T07:39:21.200Z,100.00
2023-05-15T07:41:49.255Z,100.00
2023-05-15T07:44:17.354Z,100.00
2023-05-15T07:46:46.079Z,100.00
2023-05-15T07:49:14.194Z,100.00
2023-05-15T07:51:42.733Z,100.00
2023-05-15T07:54:10.852Z,100.00
2023-05-15T07:56:40.285Z,100.00
2023-05-15T07:59:08.664Z,100.00
2023-05-15T08:01:36.733Z,100.00
2023-05-15T08:04:08.267Z,95.70
2023-05-15T08:06:38.047Z,91.98
2023-05-15T08:09:06.056Z,90.66
2023-05-15T08:11:34.126Z,92.52
2023-05-15T08:14:03.571Z,90.95
2023-05-15T08:16:31.835Z,90.98
2023-05-15T08:19:03.606Z,90.03
2023-05-15T08:21:32.411Z,93.42
2023-05-15T08:24:01.213Z,81.62
2023-05-15T08:26:29.214Z,82.57
2023-05-15T08:28:57.174Z,80.30
2023-05-15T08:31:26.549Z,81.92
2023-05-15T08:33:54.571Z,83.11
2023-05-15T08:36:22.698Z,80.44
2023-05-15T08:38:50.665Z,79.09
2023-05-15T08:41:39.207Z,77.80
2023-05-15T08:44:10.976Z,78.58
2023-05-15T08:46:41.297Z,77.08
2023-05-15T08:49:17.446Z,75.51
2023-05-15T08:51:45.663Z,74.76
2023-05-15T08:54:14.097Z,80.32
2023-05-15T08:56:43.142Z,71.60
2023-05-15T08:59:11.726Z,74.30
2023-05-15T09:01:41.157Z,78.22
2023-05-15T09:04:09.441Z,77.28
2023-05-15T09:06:39.374Z,78.79
2023-05-15T09:09:07.942Z,76.72
2023-05-15T09:11:37.334Z,75.83
2023-05-15T09:14:07.557Z,76.39
2023-05-15T09:16:35.710Z,74.40
2023-05-15T09:19:06.482Z,77.73
2023-05-15T09:21:35.623Z,74.88
2023-05-15T09:24:21.585Z,73.45
2023-05-15T09:27:02.999Z,74.79
2023-05-15T09:29:31.584Z,70.42
2023-05-15T09:32:04.094Z,70.09
2023-05-15T09:34:34.901Z,72.50
2023-05-15T09:37:04.637Z,71.03
2023-05-15T09:39:32.826Z,72.91
2023-05-15T09:42:11.472Z,75.87
2023-05-15T09:44:43.090Z,63.63
2023-05-15T09:47:11.716Z,64.43
2023-05-15T09:49:44.756Z,72.21
2023-05-15T09:52:12.888Z,69.71
2023-05-15T09:54:41.245Z,66.82
2023-05-15T09:57:10.391Z,69.62
2023-05-15T09:59:45.106Z,70.49
2023-05-15T10:02:16.224Z,64.00
2023-05-15T10:04:45.574Z,64.88
2023-05-15T10:07:13.715Z,68.99
2023-05-15T10:09:41.796Z,67.83
2023-05-15T10:12:10.912Z,64.37
2023-05-15T10:14:39.162Z,63.62
2023-05-15T10:17:07.713Z,66.87
2023-05-15T10:19:44.080Z,59.67
2023-05-15T10:22:19.981Z,62.73
2023-05-15T10:24:49.906Z,59.96
2023-05-15T10:27:19.254Z,58.48
2023-05-15T10:29:47.996Z,59.81
2023-05-15T10:32:16.937Z,62.88
2023-05-15T10:34:45.946Z,63.12
2023-05-15T10:37:16.315Z,63.19
2023-05-15T10:39:46.612Z,61.42
2023-05-15T10:42:14.860Z,64.86
2023-05-15T10:44:42.882Z,63.53
2023-05-15T10:47:11.592Z,58.91
2023-05-15T10:49:39.855Z,58.74
2023-05-15T10:52:07.988Z,58.45
2023-05-15T10:54:37.729Z,57.43
2023-05-15T10:57:06.757Z,56.08
2023-05-15T10:59:35.426Z,54.21
2023-05-15T11:02:23.488Z,55.90
2023-05-15T11:04:56.848Z,53.51
2023-05-15T11:07:25.641Z,58.69
2023-05-15T11:09:55.633Z,53.94
2023-05-15T11:12:24.598Z,52.09
2023-05-15T11:15:21.076Z,50.89
2023-05-15T11:18:05.361Z,49.70
2023-05-15T11:20:36.460Z,52.06
2023-05-15T11:23:05.175Z,49.85
2023-05-15T11:25:36.737Z,46.06
2023-05-15T11:28:05.735Z,48.93
2023-05-15T11:30:38.770Z,48.44
2023-05-15T11:33:11.598Z,50.08
2023-05-15T11:35:42.159Z,49.81
2023-05-15T11:38:15.356Z,54.28
2023-05-15T11:40:48.820Z,54.03
2023-05-15T11:43:22.201Z,53.13
2023-05-15T11:45:55.482Z,55.36
2023-05-15T11:48:24.851Z,56.24
2023-05-15T11:50:53.922Z,51.89
2023-05-15T11:53:24.022Z,50.79
2023-05-15T11:55:55.324Z,55.09
2023-05-15T11:58:25.387Z,54.49
2023-05-15T12:00:54.732Z,54.63
2023-05-15T12:03:25.024Z,56.12
2023-05-15T12:05:59.436Z,55.38
2023-05-15T12:08:32.887Z,58.30
2023-05-15T12:11:03.127Z,53.96
2023-05-15T12:13:32.189Z,53.74
2023-05-15T12:16:00.926Z,54.05
2023-05-15T12:18:28.976Z,52.96
2023-05-15T12:20:57.536Z,51.69
2023-05-15T12:23:28.519Z,49.77
2023-05-15T12:26:00.381Z,51.24
2023-05-15T12:28:30.552Z,53.66
2023-05-15T12:30:59.518Z,52.85
2023-05-15T12:33:27.769Z,52.76
2023-05-15T12:36:01.121Z,51.07
2023-05-15T12:38:30.540Z,52.68
2023-05-15T12:40:58.949Z,52.28
2023-05-15T12:43:27.608Z,50.10
2023-05-15T12:45:57.826Z,50.26
2023-05-15T12:48:31.129Z,67.27
2023-05-15T12:51:06.084Z,78.26
2023-05-15T12:53:34.501Z,95.25
2023-05-15T12:56:02.905Z,100.00
2023-05-15T12:58:31.222Z,100.00
2023-05-15T13:01:02.860Z,100.00
2023-05-15T13:03:31.929Z,100.00
2023-05-15T13:06:00.546Z,100.00
2023-05-15T13:08:29.136Z,100.00
2023-05-15T13:10:58.144Z,100.00
2023-05-15T13:13:39.809Z,100.00
2023-05-15T13:16:19.341Z,100.00
2023-05-15T13:18:47.533Z,100.00
2023-05-15T13:21:15.722Z,100.00
2023-05-15T13:23:43.757Z,100.00
2023-05-15T13:26:11.831Z,100.00
2023-05-15T13:28:39.898Z,100.00
2023-05-15T13:31:09.311Z,100.00
2023-05-15T13:33:37.576Z,100.00
2023-05-15T13:36:06.238Z,100.00
2023-05-15T13:38:34.537Z,100.00
2023-05-15T13:41:02.639Z,100.00
2023-05-15T13:43:30.656Z,100.00
2023-05-15T13:45:58.659Z,100.00
2023-05-15T13:48:28.119Z,100.00
2023-05-15T13:50:56.105Z,100.00
2023-05-15T13:53:24.155Z,100.00
2023-05-15T13:55:52.991Z,100.00
2023-05-15T13:58:21.317Z,100.00
2023-05-15T14:00:49.924Z,100.00
2023-05-15T14:03:18.102Z,100.00
2023-05-15T14:05:47.539Z,100.00
2023-05-15T14:08:15.947Z,100.00
2023-05-15T14:10:44.480Z,100.00
2023-05-15T14:13:12.461Z,100.00
2023-05-15T14:15:40.610Z,100.00
2023-05-15T14:18:08.866Z,100.00
2023-05-15T14:20:36.872Z,96.49
2023-05-15T14:23:06.218Z,94.05
2023-05-15T14:25:34.232Z,87.39
2023-05-15T14:28:02.385Z,78.74
2023-05-15T14:30:30.433Z,77.78
2023-05-15T14:32:58.472Z,77.01
2023-05-15T14:35:26.492Z,68.92
2023-05-15T14:37:54.505Z,65.79
2023-05-15T14:40:24.209Z,62.07
2023-05-15T14:42:52.480Z,58.77
2023-05-15T14:45:20.476Z,58.97
2023-05-15T14:47:48.518Z,58.66
2023-05-15T14:50:16.560Z,61.26
2023-05-15T14:52:44.566Z,59.48
2023-05-15T14:55:12.599Z,61.00
2023-05-15T14:57:42.130Z,59.70
2023-05-15T15:00:11.232Z,59.47
2023-05-15T15:02:39.305Z,60.26
2023-05-15T15:05:08.303Z,60.05
2023-05-15T15:08:01.622Z,57.99
2023-05-15T15:10:29.749Z,57.56
2023-05-15T15:12:59.542Z,57.02
2023-05-15T15:15:28.354Z,59.79
2023-05-15T15:17:57.289Z,64.35
2023-05-15T15:20:26.517Z,68.14
2023-05-15T15:22:55.534Z,69.98
2023-05-15T15:25:23.936Z,74.47
2023-05-15T15:27:52.542Z,71.10
2023-05-15T15:30:22.339Z,75.45
2023-05-15T15:32:50.522Z,73.74
2023-05-15T15:35:18.541Z,74.85
2023-05-15T15:37:46.646Z,71.20
2023-05-15T15:40:15.028Z,72.56
2023-05-15T15:42:43.130Z,71.96
2023-05-15T15:45:11.394Z,71.50
2023-05-15T15:47:40.840Z,70.30
2023-05-15T15:50:09.502Z,68.69
2023-05-15T15:52:37.549Z,63.88
2023-05-15T15:55:06.397Z,68.86
2023-05-15T15:57:34.618Z,74.52
2023-05-15T16:00:02.726Z,78.86
2023-05-15T16:02:30.876Z,79.85
2023-05-15T16:05:00.360Z,75.17
2023-05-15T16:07:28.349Z,68.92
2023-05-15T16:10:10.050Z,64.53
2023-05-15T16:12:42.355Z,64.34
2023-05-15T16:17:42.133Z,71.20
2023-05-15T16:20:12.424Z,72.32
2023-05-15T16:22:41.795Z,63.15
2023-05-15T16:25:10.279Z,60.81
2023-05-15T16:27:38.256Z,59.88
2023-05-15T16:30:07.290Z,63.69
2023-05-15T16:32:35.440Z,68.08
2023-05-15T16:35:03.689Z,72.03
2023-05-15T16:37:33.044Z,79.66
2023-05-15T16:40:01.029Z,88.50
2023-05-15T16:42:29.065Z,94.40
2023-05-15T16:44:57.118Z,98.40
2023-05-15T16:47:25.202Z,93.57
2023-05-15T16:49:53.233Z,90.32
2023-05-15T16:52:21.459Z,89.19
2023-05-15T16:54:51.038Z,88.79
2023-05-15T16:57:19.008Z,87.13
2023-05-15T16:59:47.150Z,85.53
2023-05-15T17:02:15.270Z,83.27
2023-05-15T17:04:43.310Z,80.46
2023-05-15T17:07:11.345Z,86.46
2023-05-15T17:09:40.596Z,89.10
2023-05-15T17:12:10.138Z,92.57
2023-05-15T17:14:38.188Z,95.39
2023-05-15T17:17:06.266Z,100.00
2023-05-15T17:19:34.994Z,100.00
2023-05-15T17:22:03.160Z,100.00
2023-05-15T17:24:48.873Z,100.00
2023-05-15T17:27:20.517Z,100.00
2023-05-15T17:29:49.184Z,100.00
2023-05-15T17:32:18.169Z,100.00
2023-05-15T17:34:46.853Z,100.00
2023-05-15T17:37:15.253Z,100.00
2023-05-15T17:39:43.378Z,100.00
2023-05-15T17:42:11.458Z,100.00
2023-05-15T17:44:41.005Z,100.00
2023-05-15T17:47:10.261Z,100.00
2023-05-15T17:49:39.225Z,100.00
2023-05-15T17:52:07.924Z,100.00
2023-05-15T17:54:36.017Z,100.00
2023-05-15T17:57:04.606Z,100.00
2023-05-15T17:59:32.633Z,100.00
2023-05-15T18:02:02.514Z,100.00
2023-05-15T18:04:30.617Z,100.00
2023-05-15T18:06:58.631Z,100.00
2023-05-15T18:09:27.012Z,100.00
2023-05-15T18:11:55.018Z,100.00
2023-05-15T18:14:23.154Z,100.00
2023-05-15T18:16:51.373Z,100.00
2023-05-15T18:19:20.980Z,100.00
2023-05-15T18:21:49.346Z,100.00
2023-05-15T18:24:17.361Z,100.00
2023-05-15T18:26:45.417Z,100.00
2023-05-15T18:29:13.708Z,100.00
2023-05-15T18:31:41.771Z,100.00
2023-05-15T18:34:09.813Z,100.00
2023-05-15T18:36:39.251Z,100.00
2023-05-15T18:39:07.280Z,100.00
2023-05-15T18:41:35.330Z,100.00
2023-05-15T18:44:03.458Z,100.00
2023-05-15T18:46:31.841Z,100.00
2023-05-15T18:48:59.985Z,100.00
2023-05-15T18:51:28.242Z,100.00
2023-05-15T18:53:57.572Z,100.00
2023-05-15T18:56:25.980Z,100.00
2023-05-15T18:58:55.207Z,100.00
2023-05-15T19:01:23.269Z,100.00
2023-05-15T19:03:51.376Z,100.00
2023-05-15T19:06:20.261Z,100.00
2023-05-15T19:08:49.058Z,100.00
2023-05-15T19:11:18.630Z,100.00
2023-05-15T19:13:46.680Z,100.00
2023-05-15T19:16:14.808Z,100.00
2023-05-15T19:18:42.973Z,100.00
2023-05-15T19:21:11.314Z,100.00
2023-05-15T19:23:39.349Z,100.00
2023-05-15T19:26:07.334Z,100.00
2023-05-15T19:28:36.937Z,100.00
2023-05-15T19:31:05.639Z,100.00
2023-05-15T19:33:36.250Z,100.00
2023-05-15T19:36:04.248Z,100.00
2023-05-15T19:38:32.250Z,100.00
2023-05-15T19:41:00.323Z,100.00
2023-05-15T19:43:28.575Z,100.00
2023-05-15T19:45:58.124Z,100.00
2023-05-15T19:48:26.117Z,100.00
2023-05-15T19:50:54.289Z,100.00
2023-05-15T19:53:22.349Z,100.00
2023-05-15T19:55:50.482Z,100.00
2023-05-15T19:58:20.838Z,100.00
2023-05-15T20:00:52.564Z,100.00
2023-05-15T20:03:22.215Z,100.00
2023-05-15T20:05:50.345Z,100.00
2023-05-15T20:08:18.342Z,100.00
2023-05-15T20:10:51.786Z,100.00
2023-05-15T20:13:19.941Z,100.00
2023-05-15T20:15:48.783Z,100.00
2023-05-15T20:18:17.214Z,100.00
2023-05-15T20:20:46.556Z,100.00
2023-05-15T20:23:14.555Z,100.00
2023-05-15T20:25:42.640Z,100.00
2023-05-15T20:28:10.638Z,100.00
2023-05-15T20:30:38.750Z,100.00
2023-05-15T20:33:07.075Z,100.00
2023-05-15T20:35:35.232Z,100.00
2023-05-15T20:38:04.648Z,100.00
2023-05-15T20:40:32.632Z,100.00
2023-05-15T20:43:01.269Z,100.00
2023-05-15T20:45:29.461Z,100.00
2023-05-15T20:47:57.606Z,100.00
2023-05-15T20:50:27.093Z,100.00
2023-05-15T20:52:55.720Z,100.00
2023-05-15T20:55:25.144Z,100.00
2023-05-15T20:57:53.123Z,100.00
2023-05-15T21:00:21.174Z,100.00
2023-05-15T21:02:49.257Z,100.00
2023-05-15T21:05:17.264Z,100.00
2023-05-15T21:07:45.335Z,100.00
2023-05-15T21:10:13.364Z,100.00
2023-05-15T21:12:42.747Z,100.00
2023-05-15T21:15:11.367Z,100.00
2023-05-15T21:17:39.829Z,100.00
2023-05-15T21:20:09.288Z,100.00
2023-05-15T21:22:37.262Z,100.00
2023-05-15T21:25:06.000Z,100.00
2023-05-15T21:27:33.986Z,100.00
2023-05-15T21:30:03.805Z,100.00
2023-05-15T21:32:31.861Z,100.00
2023-05-15T21:34:59.847Z,100.00
2023-05-15T21:37:28.106Z,100.00
2023-05-15T21:39:56.389Z,100.00
2023-05-15T21:42:24.447Z,100.00
2023-05-15T21:44:52.407Z,100.00
2023-05-15T21:47:21.761Z,100.00
2023-05-15T21:49:49.755Z,100.00
2023-05-15T21:52:17.757Z,100.00
2023-05-15T21:54:46.493Z,100.00
2023-05-15T21:57:14.479Z,100.00
2023-05-15T21:59:42.491Z,100.00
2023-05-15T22:02:10.793Z,100.00
2023-05-15T22:04:40.216Z,100.00
2023-05-15T22:07:08.268Z,100.00
2023-05-15T22:09:36.301Z,100.00
2023-05-15T22:12:04.660Z,100.00
2023-05-15T22:14:32.753Z,100.00
2023-05-15T22:17:00.726Z,100.00
2023-05-15T22:19:33.219Z,100.00
2023-05-15T22:22:04.479Z,100.00
2023-05-15T22:24:32.512Z,100.00
2023-05-15T22:27:00.663Z,100.00
2023-05-15T22:29:28.682Z,100.00
2023-05-15T22:31:57.428Z,100.00
2023-05-15T22:34:28.866Z,100.00
2023-05-15T22:36:56.868Z,100.00
2023-05-15T22:39:26.252Z,100.00
2023-05-15T22:41:54.255Z,100.00
2023-05-15T22:44:22.442Z,100.00
2023-05-15T22:46:50.650Z,100.00
2023-05-15T22:49:25.361Z,100.00
2023-05-15T22:51:54.936Z,100.00
2023-05-15T22:54:23.433Z,100.00
2023-05-15T22:56:53.600Z,100.00
2023-05-15T22:59:22.084Z,100.00
2023-05-15T23:01:51.373Z,100.00
2023-05-15T23:04:19.760Z,100.00
2023-05-15T23:06:47.930Z,100.00
2023-05-15T23:09:15.901Z,100.00
2023-05-15T23:11:43.866Z,100.00
2023-05-15T23:14:15.832Z,100.00
2023-05-15T23:16:44.217Z,100.00
2023-05-15T23:19:12.249Z,100.00
2023-05-15T23:21:40.277Z,100.00
2023-05-15T23:24:08.369Z,100.00
2023-05-15T23:26:36.365Z,100.00
2023-05-15T23:29:04.397Z,100.00
2023-05-15T23:31:33.913Z,100.00
2023-05-15T23:34:01.949Z,100.00
2023-05-15T23:36:30.044Z,100.00
2023-05-15T23:38:57.994Z,100.00
2023-05-15T23:41:26.325Z,100.00
2023-05-15T23:43:54.789Z,100.00
2023-05-15T23:46:22.781Z,100.00
2023-05-15T23:48:52.180Z,100.00
2023-05-15T23:51:20.532Z,100.00
2023-05-15T23:53:48.534Z,100.00
2023-05-15T23:56:16.564Z,100.00
2023-05-15T23:58:44.541Z,100.00
